createdAt,value
2018-11-25T00:00:26.618Z,99.90
2018-11-25T00:02:55.451Z,99.90
2018-11-25T00:05:24.336Z,99.90
2018-11-25T00:07:53.537Z,99.90
2018-11-25T00:10:22.495Z,99.90
2018-11-25T00:12:51.120Z,99.90
2018-11-25T00:15:20.632Z,99.90
2018-11-25T00:17:49.678Z,99.90
2018-11-25T00:20:18.402Z,99.90
2018-11-25T00:22:47.459Z,99.90
2018-11-25T00:25:16.148Z,99.90
2018-11-25T00:27:45.034Z,99.90
2018-11-25T00:30:14.419Z,99.90
2018-11-25T00:32:43.366Z,99.90
2018-11-25T00:35:14.460Z,99.90
2018-11-25T00:37:48.028Z,99.90
2018-11-25T00:40:11.467Z,99.90
2018-11-25T00:42:39.817Z,99.90
2018-11-25T00:45:11.213Z,99.90
2018-11-25T00:47:40.446Z,99.90
2018-11-25T00:50:11.205Z,99.90
2018-11-25T00:52:40.100Z,99.90
2018-11-25T00:55:09.901Z,99.90
2018-11-25T00:57:38.670Z,99.90
2018-11-25T01:00:11.108Z,99.90
2018-11-25T01:02:39.949Z,99.90
2018-11-25T01:05:09.082Z,99.90
2018-11-25T01:07:37.433Z,99.90
2018-11-25T01:10:08.695Z,99.90
2018-11-25T01:12:37.476Z,99.90
2018-11-25T01:15:08.558Z,99.90
2018-11-25T01:17:37.305Z,99.90
2018-11-25T01:20:07.854Z,99.90
2018-11-25T01:22:38.449Z,99.90
2018-11-25T01:25:08.027Z,99.90
2018-11-25T01:27:37.065Z,99.90
2018-11-25T01:30:08.936Z,99.90
2018-11-25T01:32:37.651Z,99.90
2018-11-25T01:35:07.474Z,99.90
2018-11-25T01:37:36.612Z,99.90
2018-11-25T01:40:08.900Z,99.90
2018-11-25T01:42:37.582Z,99.90
2018-11-25T01:45:07.764Z,99.90
2018-11-25T01:47:36.750Z,99.90
2018-11-25T01:50:06.513Z,99.90
2018-11-25T01:52:35.215Z,99.90
2018-11-25T01:55:03.938Z,99.90
2018-11-25T01:57:32.302Z,99.90
2018-11-25T02:00:01.003Z,99.90
2018-11-25T02:02:30.030Z,99.90
2018-11-25T02:04:58.763Z,99.90
2018-11-25T02:07:27.500Z,99.90
2018-11-25T02:09:56.547Z,99.90
2018-11-25T02:12:25.284Z,99.90
2018-11-25T02:14:53.963Z,99.90
2018-11-25T02:17:23.000Z,99.90
2018-11-25T02:19:51.790Z,99.90
2018-11-25T02:22:20.522Z,99.90
2018-11-25T02:24:49.697Z,99.90
2018-11-25T02:27:18.471Z,99.90
2018-11-25T02:29:47.497Z,99.90
2018-11-25T02:32:16.526Z,99.90
2018-11-25T02:34:45.543Z,99.90
2018-11-25T02:37:14.617Z,99.90
2018-11-25T02:39:43.646Z,99.90
2018-11-25T02:42:12.679Z,99.90
2018-11-25T02:44:41.416Z,99.90
2018-11-25T02:47:10.516Z,99.90
2018-11-25T02:49:39.206Z,99.90
2018-11-25T02:52:07.897Z,99.90
2018-11-25T02:54:36.935Z,99.90
2018-11-25T02:57:05.824Z,99.90
2018-11-25T02:59:34.550Z,99.90
2018-11-25T03:02:03.238Z,99.90
2018-11-25T03:04:32.270Z,99.90
2018-11-25T03:07:01.308Z,99.90
2018-11-25T03:09:30.006Z,99.90
2018-11-25T03:11:59.574Z,99.90
2018-11-25T03:14:28.576Z,99.90
2018-11-25T03:16:57.642Z,99.90
2018-11-25T03:19:26.662Z,99.90
2018-11-25T03:21:55.350Z,99.90
2018-11-25T03:24:24.445Z,99.90
2018-11-25T03:26:53.522Z,99.90
2018-11-25T03:29:22.546Z,99.90
2018-11-25T03:31:50.930Z,99.90
2018-11-25T03:34:19.623Z,99.90
2018-11-25T03:36:48.687Z,99.90
2018-11-25T03:39:17.398Z,99.90
2018-11-25T03:41:46.442Z,99.90
2018-11-25T03:44:15.462Z,99.90
2018-11-25T03:46:44.162Z,99.90
2018-11-25T03:49:13.253Z,99.90
2018-11-25T03:51:41.943Z,99.90
2018-11-25T03:54:10.618Z,99.90
2018-11-25T03:56:39.662Z,99.90
2018-11-25T03:59:08.674Z,99.90
2018-11-25T04:01:37.374Z,99.90
2018-11-25T04:04:06.375Z,99.90
2018-11-25T04:06:35.086Z,99.90
2018-11-25T04:09:04.906Z,99.90
2018-11-25T04:11:33.626Z,99.90
2018-11-25T04:14:02.666Z,99.90
2018-11-25T04:16:31.435Z,99.90
2018-11-25T04:19:00.471Z,99.90
2018-11-25T04:21:29.518Z,99.90
2018-11-25T04:23:58.223Z,99.90
2018-11-25T04:26:26.913Z,99.90
2018-11-25T04:28:55.604Z,99.90
2018-11-25T04:31:23.957Z,99.90
2018-11-25T04:33:52.822Z,99.90
2018-11-25T04:36:21.512Z,99.90
2018-11-25T04:38:50.238Z,99.90
2018-11-25T04:41:18.914Z,99.90
2018-11-25T04:43:47.619Z,99.90
2018-11-25T04:46:16.402Z,99.90
2018-11-25T04:48:44.763Z,99.90
2018-11-25T04:51:13.787Z,99.90
2018-11-25T04:53:42.855Z,99.90
2018-11-25T04:56:11.911Z,99.90
2018-11-25T04:58:41.043Z,99.90
2018-11-25T05:01:10.080Z,99.90
2018-11-25T05:03:38.785Z,99.90
2018-11-25T05:06:07.453Z,99.90
2018-11-25T05:08:36.495Z,99.90
2018-11-25T05:11:04.858Z,99.90
2018-11-25T05:13:33.571Z,99.90
2018-11-25T05:16:02.283Z,99.90
2018-11-25T05:18:31.442Z,99.90
2018-11-25T05:21:00.497Z,99.90
2018-11-25T05:23:29.217Z,99.90
2018-11-25T05:25:58.218Z,99.90
2018-11-25T05:28:27.288Z,99.90
2018-11-25T05:30:55.997Z,99.90
2018-11-25T05:33:25.033Z,99.90
2018-11-25T05:35:53.753Z,99.90
2018-11-25T05:38:22.782Z,99.90
2018-11-25T05:40:51.823Z,99.90
2018-11-25T05:43:20.545Z,99.90
2018-11-25T05:45:49.253Z,99.90
2018-11-25T05:48:18.278Z,99.90
2018-11-25T05:50:47.308Z,99.90
2018-11-25T05:53:15.712Z,99.90
2018-11-25T05:55:44.751Z,99.90
2018-11-25T05:58:13.805Z,99.90
2018-11-25T06:00:42.492Z,99.90
2018-11-25T06:03:11.214Z,99.90
2018-11-25T06:05:40.250Z,99.90
2018-11-25T06:08:08.928Z,99.90
2018-11-25T06:10:37.641Z,99.90
2018-11-25T06:13:06.370Z,99.90
2018-11-25T06:15:35.045Z,99.90
2018-11-25T06:18:03.784Z,99.90
2018-11-25T06:20:32.194Z,99.90
2018-11-25T06:23:00.591Z,99.90
2018-11-25T06:25:29.666Z,99.90
2018-11-25T06:27:58.938Z,99.90
2018-11-25T06:30:27.744Z,99.90
2018-11-25T06:32:56.107Z,99.90
2018-11-25T06:35:25.176Z,99.90
2018-11-25T06:37:53.882Z,99.90
2018-11-25T06:40:22.288Z,99.90
2018-11-25T06:42:51.317Z,99.90
2018-11-25T06:45:22.939Z,99.90
2018-11-25T06:47:51.415Z,99.90
2018-11-25T06:50:20.571Z,99.90
2018-11-25T06:52:49.652Z,99.90
2018-11-25T06:55:18.036Z,99.90
2018-11-25T06:57:46.426Z,99.90
2018-11-25T07:00:16.011Z,99.90
2018-11-25T07:02:44.822Z,99.90
2018-11-25T07:05:13.232Z,99.90
2018-11-25T07:07:41.910Z,99.90
2018-11-25T07:10:14.718Z,99.90
2018-11-25T07:12:43.455Z,99.90
2018-11-25T07:15:13.934Z,99.90
2018-11-25T07:17:43.134Z,99.90
2018-11-25T07:20:12.522Z,99.90
2018-11-25T07:22:41.191Z,99.90
2018-11-25T07:25:10.968Z,99.90
2018-11-25T07:27:39.693Z,99.90
2018-11-25T07:30:16.745Z,99.90
2018-11-25T07:32:45.107Z,99.90
2018-11-25T07:35:13.483Z,99.90
2018-11-25T07:37:42.272Z,99.90
2018-11-25T07:40:14.136Z,99.90
2018-11-25T07:42:43.245Z,99.90
2018-11-25T07:45:15.707Z,99.90
2018-11-25T07:47:44.453Z,99.90
2018-11-25T07:50:13.486Z,99.90
2018-11-25T07:52:43.363Z,99.90
2018-11-25T07:55:14.754Z,99.90
2018-11-25T07:57:43.634Z,99.90
2018-11-25T08:00:14.274Z,99.90
2018-11-25T08:02:42.654Z,99.90
2018-11-25T08:05:12.607Z,99.90
2018-11-25T08:07:41.666Z,99.90
2018-11-25T08:10:11.574Z,99.90
2018-11-25T08:12:40.662Z,99.90
2018-11-25T08:15:10.262Z,99.90
2018-11-25T08:17:39.033Z,99.90
2018-11-25T08:20:11.041Z,99.90
2018-11-25T08:22:39.767Z,99.90
2018-11-25T08:25:12.361Z,99.90
2018-11-25T08:27:41.089Z,99.90
2018-11-25T08:30:17.532Z,99.90
2018-11-25T08:32:45.897Z,99.90
2018-11-25T08:35:14.914Z,99.90
2018-11-25T08:37:43.311Z,99.90
2018-11-25T08:40:17.131Z,99.90
2018-11-25T08:42:46.215Z,99.90
2018-11-25T08:45:15.051Z,99.90
2018-11-25T08:47:44.231Z,99.90
2018-11-25T08:50:15.667Z,99.90
2018-11-25T08:52:45.777Z,99.90
2018-11-25T08:55:16.807Z,99.90
2018-11-25T08:57:45.602Z,99.90
2018-11-25T09:00:16.381Z,99.90
2018-11-25T09:02:45.269Z,99.90
2018-11-25T09:05:14.515Z,99.90
2018-11-25T09:07:43.426Z,99.90
2018-11-25T09:10:14.728Z,99.90
2018-11-25T09:12:44.320Z,99.90
2018-11-25T09:15:14.888Z,99.90
2018-11-25T09:17:43.650Z,99.90
2018-11-25T09:20:16.147Z,99.90
2018-11-25T09:22:44.890Z,99.90
2018-11-25T09:25:16.406Z,99.90
2018-11-25T09:27:45.203Z,99.90
2018-11-25T09:30:23.717Z,99.90
2018-11-25T09:32:52.278Z,99.90
2018-11-25T09:35:20.971Z,99.90
2018-11-25T09:37:49.676Z,99.90
2018-11-25T09:40:20.425Z,99.90
2018-11-25T09:42:49.939Z,99.90
2018-11-25T09:45:19.245Z,99.90
2018-11-25T09:47:47.892Z,99.90
2018-11-25T09:50:22.644Z,99.90
2018-11-25T09:52:51.147Z,99.90
2018-11-25T09:55:20.519Z,99.90
2018-11-25T09:57:50.703Z,99.90
2018-11-25T10:00:20.238Z,99.90
2018-11-25T10:02:48.642Z,99.90
2018-11-25T10:05:17.054Z,99.90
2018-11-25T10:07:46.578Z,99.90
2018-11-25T10:10:15.985Z,99.90
2018-11-25T10:12:44.343Z,99.90
2018-11-25T10:15:14.710Z,99.70
2018-11-25T10:17:43.436Z,98.50
2018-11-25T10:20:17.897Z,96.20
2018-11-25T10:22:46.719Z,95.20
2018-11-25T10:25:16.120Z,96.70
2018-11-25T10:27:44.957Z,96.00
2018-11-25T10:30:17.877Z,96.60
2018-11-25T10:32:47.636Z,96.80
2018-11-25T10:35:15.983Z,97.60
2018-11-25T10:37:44.746Z,97.40
2018-11-25T10:40:14.070Z,98.40
2018-11-25T10:42:42.467Z,96.90
2018-11-25T10:45:12.032Z,95.20
2018-11-25T10:47:41.094Z,97.50
2018-11-25T10:50:10.950Z,96.60
2018-11-25T10:52:39.619Z,98.50
2018-11-25T10:55:09.139Z,99.30
2018-11-25T10:57:38.390Z,97.90
2018-11-25T11:00:20.397Z,98.70
2018-11-25T11:02:53.378Z,98.60
2018-11-25T11:05:27.218Z,99.90
2018-11-25T11:07:56.306Z,99.40
2018-11-25T11:10:24.666Z,98.70
2018-11-25T11:12:53.062Z,98.00
2018-11-25T11:15:21.734Z,99.60
2018-11-25T11:17:51.635Z,97.60
2018-11-25T11:20:20.327Z,97.20
2018-11-25T11:22:49.033Z,98.10
2018-11-25T11:25:17.756Z,96.50
2018-11-25T11:27:46.511Z,97.70
2018-11-25T11:30:15.590Z,98.20
2018-11-25T11:32:46.205Z,98.10
2018-11-25T11:35:14.921Z,95.20
2018-11-25T11:37:43.613Z,98.30
2018-11-25T11:40:13.144Z,98.90
2018-11-25T11:42:42.213Z,99.90
2018-11-25T11:45:12.053Z,99.90
2018-11-25T11:47:41.084Z,99.90
2018-11-25T11:50:15.134Z,99.90
2018-11-25T11:52:44.226Z,99.90
2018-11-25T11:55:14.887Z,99.90
2018-11-25T11:57:44.159Z,99.90
2018-11-25T12:00:20.162Z,99.90
2018-11-25T12:02:48.939Z,99.90
2018-11-25T12:05:17.994Z,99.90
2018-11-25T12:07:47.035Z,99.90
2018-11-25T12:10:16.323Z,99.90
2018-11-25T12:12:45.039Z,99.90
2018-11-25T12:15:19.218Z,99.90
2018-11-25T12:17:48.255Z,99.90
2018-11-25T12:20:16.587Z,99.90
2018-11-25T12:22:45.719Z,99.90
2018-11-25T12:25:15.777Z,99.90
2018-11-25T12:27:44.537Z,99.90
2018-11-25T12:30:13.850Z,99.90
2018-11-25T12:32:43.270Z,99.90
2018-11-25T12:35:12.823Z,99.90
2018-11-25T12:37:41.575Z,99.90
2018-11-25T12:40:14.961Z,99.90
2018-11-25T12:42:44.938Z,99.90
2018-11-25T12:45:14.852Z,99.90
2018-11-25T12:47:43.538Z,99.90
2018-11-25T12:50:14.248Z,99.90
2018-11-25T12:52:42.959Z,99.90
2018-11-25T12:55:13.318Z,99.90
2018-11-25T12:57:41.995Z,99.90
2018-11-25T13:00:17.488Z,99.90
2018-11-25T13:02:46.546Z,99.90
2018-11-25T13:05:15.257Z,99.90
2018-11-25T13:07:43.978Z,99.90
2018-11-25T13:10:12.339Z,99.90
2018-11-25T13:12:41.356Z,99.90
2018-11-25T13:15:10.233Z,99.90
2018-11-25T13:17:38.994Z,99.90
2018-11-25T13:20:10.213Z,99.90
2018-11-25T13:22:39.226Z,99.90
2018-11-25T13:25:11.853Z,99.90
2018-11-25T13:27:40.871Z,99.90
2018-11-25T13:30:16.414Z,99.90
2018-11-25T13:32:45.411Z,99.90
2018-11-25T13:35:14.101Z,99.90
2018-11-25T13:37:43.146Z,99.90
2018-11-25T13:40:12.815Z,99.90
2018-11-25T13:42:41.844Z,99.90
2018-11-25T13:45:10.947Z,99.90
2018-11-25T13:47:39.715Z,99.90
2018-11-25T13:50:10.318Z,99.90
2018-11-25T13:52:38.907Z,99.90
2018-11-25T13:55:14.585Z,99.90
2018-11-25T13:57:43.318Z,99.90
2018-11-25T14:00:39.523Z,99.90
2018-11-25T14:03:09.903Z,99.90
2018-11-25T14:05:38.402Z,99.90
2018-11-25T14:08:08.546Z,99.90
2018-11-25T14:10:37.199Z,99.90
2018-11-25T14:13:06.176Z,99.90
2018-11-25T14:15:35.111Z,99.90
2018-11-25T14:18:03.550Z,99.90
2018-11-25T14:20:32.262Z,99.90
2018-11-25T14:23:01.003Z,99.90
2018-11-25T14:25:30.090Z,99.90
2018-11-25T14:28:03.937Z,99.90
2018-11-25T14:30:33.109Z,99.90
2018-11-25T14:33:02.146Z,99.90
2018-11-25T14:35:31.332Z,99.90
2018-11-25T14:38:00.214Z,99.90
2018-11-25T14:40:29.254Z,99.90
2018-11-25T14:42:58.282Z,99.90
2018-11-25T14:45:26.666Z,99.90
2018-11-25T14:47:55.449Z,99.90
2018-11-25T14:50:24.507Z,99.90
2018-11-25T14:52:53.208Z,99.90
2018-11-25T14:55:21.651Z,99.90
2018-11-25T14:57:50.713Z,99.90
2018-11-25T15:00:20.258Z,99.90
2018-11-25T15:02:50.626Z,99.90
2018-11-25T15:05:27.406Z,99.90
2018-11-25T15:07:56.519Z,99.90
2018-11-25T15:10:25.309Z,99.90
2018-11-25T15:12:53.782Z,99.90
2018-11-25T15:15:22.150Z,99.90
2018-11-25T15:17:50.846Z,99.90
2018-11-25T15:20:19.873Z,99.90
2018-11-25T15:22:50.642Z,99.90
2018-11-25T15:25:21.233Z,99.90
2018-11-25T15:27:50.014Z,99.90
2018-11-25T15:30:18.830Z,99.90
2018-11-25T15:32:47.200Z,99.90
2018-11-25T15:35:18.320Z,99.90
2018-11-25T15:37:48.219Z,99.90
2018-11-25T15:40:22.473Z,99.90
2018-11-25T15:42:51.477Z,99.90
2018-11-25T15:45:20.205Z,99.90
2018-11-25T15:47:52.282Z,99.90
2018-11-25T15:50:25.107Z,99.90
2018-11-25T15:52:54.051Z,99.90
2018-11-25T15:55:22.758Z,99.90
2018-11-25T15:57:51.891Z,99.90
2018-11-25T16:00:22.656Z,99.90
2018-11-25T16:02:51.358Z,99.90
2018-11-25T16:05:31.570Z,99.90
2018-11-25T16:08:00.737Z,99.90
2018-11-25T16:10:29.457Z,99.90
2018-11-25T16:12:58.551Z,99.90
2018-11-25T16:15:28.324Z,99.90
2018-11-25T16:17:57.122Z,99.90
2018-11-25T16:20:27.413Z,99.90
2018-11-25T16:22:57.499Z,99.90
2018-11-25T16:25:32.557Z,99.90
2018-11-25T16:28:39.574Z,99.90
2018-11-25T16:31:08.623Z,99.90
2018-11-25T16:33:37.714Z,99.90
2018-11-25T16:36:06.935Z,99.90
2018-11-25T16:38:35.986Z,99.90
2018-11-25T16:41:05.251Z,99.90
2018-11-25T16:43:33.688Z,99.90
2018-11-25T16:46:02.078Z,99.90
2018-11-25T16:48:30.891Z,99.90
2018-11-25T16:50:59.621Z,99.90
2018-11-25T16:53:28.529Z,99.90
2018-11-25T16:55:56.941Z,99.90
2018-11-25T16:58:25.482Z,99.90
2018-11-25T17:00:53.905Z,99.90
2018-11-25T17:03:23.025Z,99.90
2018-11-25T17:05:52.805Z,99.90
2018-11-25T17:08:39.445Z,99.90
2018-11-25T17:11:08.572Z,99.90
2018-11-25T17:13:37.366Z,99.90
2018-11-25T17:16:06.957Z,99.90
2018-11-25T17:18:35.350Z,99.90
2018-11-25T17:21:04.067Z,99.90
2018-11-25T17:23:32.826Z,99.90
2018-11-25T17:26:01.628Z,99.90
2018-11-25T17:28:30.916Z,99.90
2018-11-25T17:30:59.890Z,99.90
2018-11-25T17:33:28.987Z,99.90
2018-11-25T17:35:57.722Z,99.90
2018-11-25T17:38:26.831Z,99.90
2018-11-25T17:40:56.094Z,99.90
2018-11-25T17:43:25.296Z,99.90
2018-11-25T17:45:54.078Z,99.90
2018-11-25T17:48:23.201Z,99.90
2018-11-25T17:50:51.598Z,99.90
2018-11-25T17:53:21.094Z,99.90
2018-11-25T17:55:49.535Z,99.90
2018-11-25T17:58:18.383Z,99.90
2018-11-25T18:00:55.691Z,99.90
2018-11-25T18:03:26.938Z,99.90
2018-11-25T18:05:55.654Z,99.90
2018-11-25T18:08:24.072Z,99.90
2018-11-25T18:10:52.837Z,99.90
2018-11-25T18:13:23.332Z,99.90
2018-11-25T18:15:53.058Z,99.90
2018-11-25T18:18:46.499Z,99.90
2018-11-25T18:21:16.941Z,99.90
2018-11-25T18:23:45.656Z,99.90
2018-11-25T18:26:14.414Z,99.90
2018-11-25T18:28:43.466Z,99.90
2018-11-25T18:31:13.146Z,99.90
2018-11-25T18:33:41.863Z,99.90
2018-11-25T18:36:12.887Z,99.90
2018-11-25T18:38:41.625Z,99.90
2018-11-25T18:41:10.017Z,99.90
2018-11-25T18:43:38.409Z,99.90
2018-11-25T18:46:07.887Z,99.90
2018-11-25T18:48:39.368Z,99.90
2018-11-25T18:51:08.505Z,99.90
2018-11-25T18:53:37.583Z,99.90
2018-11-25T18:56:06.713Z,99.90
2018-11-25T18:58:35.789Z,99.90
2018-11-25T19:01:09.146Z,99.90
2018-11-25T19:03:38.280Z,99.90
2018-11-25T19:06:06.875Z,99.90
2018-11-25T19:08:35.982Z,99.90
2018-11-25T19:11:04.378Z,99.90
2018-11-25T19:13:33.453Z,99.90
2018-11-25T19:16:02.516Z,99.90
2018-11-25T19:18:31.490Z,99.90
2018-11-25T19:21:00.584Z,99.90
2018-11-25T19:23:29.832Z,99.90
2018-11-25T19:25:59.745Z,99.90
2018-11-25T19:28:29.007Z,99.90
2018-11-25T19:30:58.366Z,99.90
2018-11-25T19:33:27.908Z,99.90
2018-11-25T19:35:57.414Z,99.90
2018-11-25T19:38:27.840Z,99.90
2018-11-25T19:40:56.936Z,99.90
2018-11-25T19:43:25.832Z,99.90
2018-11-25T19:45:58.202Z,99.90
2018-11-25T19:48:27.711Z,99.90
2018-11-25T19:50:56.536Z,99.90
2018-11-25T19:53:25.798Z,99.90
2018-11-25T19:55:55.508Z,99.90
2018-11-25T19:58:24.809Z,99.90
2018-11-25T20:00:54.322Z,99.90
2018-11-25T20:03:24.024Z,99.90
2018-11-25T20:05:53.223Z,99.90
2018-11-25T20:08:23.417Z,99.90
2018-11-25T20:10:52.642Z,99.90
2018-11-25T20:13:22.172Z,99.90
2018-11-25T20:15:51.755Z,99.90
2018-11-25T20:18:21.261Z,99.90
2018-11-25T20:20:56.296Z,99.90
2018-11-25T20:23:25.089Z,99.90
2018-11-25T20:25:54.131Z,99.90
2018-11-25T20:28:23.238Z,99.90
2018-11-25T20:30:52.319Z,99.90
2018-11-25T20:33:26.895Z,99.90
2018-11-25T20:35:55.596Z,99.90
2018-11-25T20:38:30.093Z,99.90
2018-11-25T20:40:58.544Z,99.90
2018-11-25T20:43:27.290Z,99.90
2018-11-25T20:46:01.764Z,99.90
2018-11-25T20:48:30.907Z,99.90
2018-11-25T20:50:59.986Z,99.90
2018-11-25T20:53:34.282Z,99.90
2018-11-25T20:56:03.315Z,99.90
2018-11-25T20:58:32.397Z,99.90
2018-11-25T21:01:01.502Z,99.90
2018-11-25T21:03:30.469Z,99.90
2018-11-25T21:05:59.186Z,99.90
2018-11-25T21:08:28.237Z,99.90
2018-11-25T21:10:57.328Z,99.90
2018-11-25T21:13:26.122Z,99.90
2018-11-25T21:15:55.246Z,99.90
2018-11-25T21:18:24.294Z,99.90
2018-11-25T21:20:53.046Z,99.90
2018-11-25T21:23:21.905Z,99.90
2018-11-25T21:25:50.652Z,99.90
2018-11-25T21:28:19.366Z,99.90
2018-11-25T21:30:48.813Z,99.90
2018-11-25T21:33:17.895Z,99.90
2018-11-25T21:35:46.660Z,99.90
2018-11-25T21:38:15.412Z,99.90
2018-11-25T21:40:44.548Z,99.90
2018-11-25T21:43:13.132Z,99.90
2018-11-25T21:45:42.373Z,99.90
2018-11-25T21:48:11.580Z,99.90
2018-11-25T21:50:40.326Z,99.90
2018-11-25T21:53:09.443Z,99.90
2018-11-25T21:55:37.918Z,99.90
2018-11-25T21:58:07.053Z,99.90
2018-11-25T22:00:35.971Z,99.90
2018-11-25T22:03:04.489Z,99.90
2018-11-25T22:05:33.551Z,99.90
2018-11-25T22:08:02.955Z,99.90
2018-11-25T22:10:31.515Z,99.90
2018-11-25T22:13:00.031Z,99.90
2018-11-25T22:15:29.067Z,99.90
2018-11-25T22:17:57.809Z,99.90
2018-11-25T22:20:26.942Z,99.90
2018-11-25T22:22:55.281Z,99.90
2018-11-25T22:25:23.737Z,99.90
2018-11-25T22:27:52.404Z,99.90
2018-11-25T22:30:23.514Z,99.90
2018-11-25T22:32:52.567Z,98.20
2018-11-25T22:35:22.666Z,98.10
2018-11-25T22:37:51.439Z,99.90
2018-11-25T22:40:20.491Z,98.50
2018-11-25T22:42:50.435Z,97.90
2018-11-25T22:45:20.419Z,97.90
2018-11-25T22:47:49.438Z,97.20
2018-11-25T22:50:18.448Z,97.30
2018-11-25T22:52:47.530Z,96.90
2018-11-25T22:55:19.922Z,97.20
2018-11-25T22:57:48.835Z,96.90
2018-11-25T23:00:25.877Z,97.10
2018-11-25T23:02:54.618Z,95.90
2018-11-25T23:05:34.614Z,93.50
2018-11-25T23:08:03.146Z,95.00
2018-11-25T23:10:31.530Z,95.90
2018-11-25T23:12:59.958Z,94.40
2018-11-25T23:15:28.697Z,95.70
2018-11-25T23:17:57.726Z,93.80
2018-11-25T23:20:26.719Z,92.50
2018-11-25T23:22:55.423Z,94.00
2018-11-25T23:25:24.148Z,92.50
2018-11-25T23:27:52.862Z,92.80
2018-11-25T23:30:21.650Z,93.50
2018-11-25T23:32:50.723Z,93.40
2018-11-25T23:35:22.799Z,94.50
2018-11-25T23:37:51.205Z,95.40
2018-11-25T23:40:19.579Z,94.80
2018-11-25T23:42:48.301Z,98.00
2018-11-25T23:45:17.078Z,97.80
2018-11-25T23:47:45.558Z,96.80
2018-11-25T23:50:14.877Z,97.10
2018-11-25T23:52:44.954Z,96.10
2018-11-25T23:55:14.413Z,93.60
2018-11-25T23:57:43.100Z,92.10
